This is the latest recevied weather packets stored in our database for station/object N3TJJ-2. If no packets are shown the sender has not sent any weather packets the latest 10 day(s).
| Time | Temp. | Humidity | Pressure | Rain* | Wind** | Luminosity | Snow |
|---|---|---|---|---|---|---|---|
| 1777585272 | 14.44° C | 70% | 1009.6 hPa | 0 mm | - | - | - |
| 1777584985 | 15° C | 69% | 1009.5 hPa | 0 mm | - | - | - |
| 1777584551 | 15.56° C | 69% | 1009.4 hPa | 0 mm | - | - | - |
| 1777584200 | 15° C | 68% | 1009.3 hPa | 0 mm | - | - | - |
| 1777583853 | 15° C | 67% | 1009.2 hPa | 0 mm | - | - | - |
| 1777583471 | 15.56° C | 66% | 1009.1 hPa | 0 mm | - | - | - |
| 1777583149 | 16.11° C | 63% | 1009 hPa | 0 mm | - | - | - |
| 1777582751 | 16.11° C | 61% | 1008.9 hPa | 0 mm | - | - | - |
| 1777582391 | 16.67° C | 57% | 1008.7 hPa | 0 mm | - | - | - |
| 1777582042 | 16.67° C | 57% | 1008.6 hPa | 0 mm | - | - | - |
| 1777581701 | 16.67° C | 58% | 1008.5 hPa | 0 mm | - | - | - |
| 1777581582 | 16.67° C | 58% | 1008.4 hPa | 0 mm | - | - | - |
| 1777580980 | 16.11° C | 60% | 1008.4 hPa | 0 mm | - | - | - |
| 1777580596 | 16.11° C | 60% | 1008.4 hPa | 0 mm | - | - | - |
| 1777580236 | 16.11° C | 58% | 1008.4 hPa | 0 mm | - | - | - |
| 1777579894 | 16.67° C | 58% | 1008.4 hPa | 0 mm | - | - | - |
| 1777579579 | 16.67° C | 57% | 1008.3 hPa | 0 mm | - | - | - |
| 1777579163 | 17.22° C | 58% | 1008.2 hPa | 0 mm | - | - | - |
| 1777578959 | 16.67° C | 59% | 1008.2 hPa | 0 mm | - | - | - |
| 1777578117 | 16.67° C | 61% | 1008.2 hPa | 0 mm | - | - | - |
| 1777577714 | 16.67° C | 60% | 1008.3 hPa | 0 mm | - | - | - |
| 1777577391 | 16.67° C | 61% | 1008.5 hPa | 0 mm | - | - | - |
| 1777577239 | 16.67° C | 60% | 1008.3 hPa | 0 mm | - | - | - |
| 1777576668 | 16.67° C | 62% | 1008.4 hPa | 0 mm | - | - | - |
| 1777576326 | 16.67° C | 61% | 1008.4 hPa | 0 mm | - | - | - |
* Rain latest hour (hover to see other rain measurements)
** Current wind speed in m/s (hover to see current wind gust speed)